Time;durP1;ratioP1;P1;durP2;ratioP2;P2;SDS_P1;SDS_P2;PMS_P1;PMS_P2;Temp;Humidity;BMP_temperature;BMP_pressure;BME280_temperature;BME280_humidity;BME280_pressure;Samples;Min_cycle;Max_cycle;Signal;HPM_P1;HPM_P2
2021/11/01 00:02:00;;;;;;;13.20;5.35;;;10.60;99.90;;;;;;4858506;29;20029;-75
2021/11/01 00:04:26;;;;;;;26.33;9.55;;;10.60;99.90;;;;;;4858988;29;20443;-75
2021/11/01 00:06:52;;;;;;;55.05;22.45;;;10.60;99.90;;;;;;4859337;29;20108;-75
2021/11/01 00:09:17;;;;;;;41.33;18.90;;;10.60;99.90;;;;;;4859874;29;20077;-76
2021/11/01 00:11:43;;;;;;;33.80;15.05;;;10.60;99.90;;;;;;4859880;29;20499;-76
2021/11/01 00:14:08;;;;;;;28.23;11.68;;;10.60;99.90;;;;;;4859149;29;20479;-75
2021/11/01 00:16:34;;;;;;;46.50;20.88;;;10.60;99.90;;;;;;4858769;29;20029;-75
2021/11/01 00:19:00;;;;;;;48.50;23.50;;;10.50;99.90;;;;;;4859183;29;20435;-75
2021/11/01 00:21:25;;;;;;;43.15;20.75;;;10.60;99.90;;;;;;4852414;29;20057;-75
2021/11/01 00:23:52;;;;;;;42.30;21.10;;;10.50;99.90;;;;;;4860086;29;20030;-75
2021/11/01 00:26:18;;;;;;;42.92;22.45;;;10.50;99.90;;;;;;4857634;29;20489;-75
2021/11/01 00:28:45;;;;;;;41.08;19.92;;;10.50;99.90;;;;;;4859628;29;20439;-75
2021/11/01 00:31:12;;;;;;;35.88;18.73;;;10.40;99.90;;;;;;4862455;29;20036;-75
2021/11/01 00:33:38;;;;;;;25.23;14.30;;;10.50;99.90;;;;;;4861646;29;20033;-76
2021/11/01 00:36:03;;;;;;;17.50;11.00;;;10.40;99.90;;;;;;4863315;29;20102;-75
2021/11/01 00:38:29;;;;;;;12.82;8.50;;;10.40;99.90;;;;;;4862510;29;20125;-76
2021/11/01 00:40:55;;;;;;;9.63;5.20;;;10.40;99.90;;;;;;4861551;29;20017;-75
2021/11/01 00:43:20;;;;;;;11.75;4.70;;;10.40;99.90;;;;;;4862241;29;20116;-76
2021/11/01 00:45:46;;;;;;;9.70;4.25;;;10.40;99.90;;;;;;4862957;29;20029;-75
2021/11/01 00:48:12;;;;;;;9.70;3.05;;;10.40;99.90;;;;;;4862414;29;20458;-75
2021/11/01 00:50:38;;;;;;;7.00;2.47;;;10.30;99.90;;;;;;4863184;29;20036;-75
2021/11/01 00:53:04;;;;;;;7.15;3.13;;;10.30;99.90;;;;;;4863127;29;20033;-75
2021/11/01 00:55:49;;;;;;;9.07;2.78;;;10.40;99.90;;;;;;4862528;29;20037;-75
2021/11/01 00:58:16;;;;;;;7.63;2.63;;;10.40;99.90;;;;;;4861572;29;20057;-76
2021/11/01 01:00:42;;;;;;;7.40;3.15;;;10.30;99.90;;;;;;4861384;29;20377;-76
2021/11/01 01:03:10;;;;;;;7.03;2.78;;;10.30;99.90;;;;;;4861372;29;20112;-76
2021/11/01 01:05:36;;;;;;;5.78;2.67;;;10.30;99.90;;;;;;4861669;29;20014;-76
2021/11/01 01:08:02;;;;;;;10.32;2.83;;;10.30;99.90;;;;;;4861764;29;20025;-75
2021/11/01 01:10:28;;;;;;;7.38;3.35;;;10.20;99.90;;;;;;4861276;29;20390;-76
2021/11/01 01:12:53;;;;;;;9.55;3.05;;;10.20;99.90;;;;;;4862867;29;20040;-76
2021/11/01 01:15:21;;;;;;;7.72;2.55;;;10.20;99.90;;;;;;4859407;29;20025;-75
2021/11/01 01:17:48;;;;;;;5.95;2.40;;;10.10;99.90;;;;;;4862521;29;20029;-75
2021/11/01 01:20:17;;;;;;;5.40;2.67;;;10.20;99.90;;;;;;4861177;29;20033;-75
2021/11/01 01:22:44;;;;;;;8.35;2.60;;;10.10;99.90;;;;;;4860707;29;20551;-75
2021/11/01 01:25:36;;;;;;;6.72;2.28;;;10.10;99.90;;;;;;4862405;29;20037;-75
2021/11/01 01:28:02;;;;;;;4.20;2.17;;;10.10;99.90;;;;;;4862153;29;20022;-75
2021/11/01 01:30:29;;;;;;;5.15;2.30;;;10.10;99.90;;;;;;4862054;29;20173;-75
2021/11/01 01:32:54;;;;;;;5.20;2.08;;;10.10;99.90;;;;;;4861320;29;20037;-75
2021/11/01 01:35:20;;;;;;;9.07;2.13;;;10.10;99.90;;;;;;4861219;29;20044;-75
2021/11/01 01:37:46;;;;;;;6.07;2.13;;;10.10;99.90;;;;;;4860214;29;20062;-75
2021/11/01 01:40:15;;;;;;;4.72;2.28;;;10.00;99.90;;;;;;4862135;29;20032;-75
2021/11/01 01:42:41;;;;;;;6.95;2.58;;;10.00;99.90;;;;;;4862161;29;20026;-75
2021/11/01 01:45:08;;;;;;;11.43;3.28;;;10.00;99.90;;;;;;4860243;29;20018;-76
2021/11/01 01:47:34;;;;;;;6.55;2.60;;;10.00;99.90;;;;;;4862280;29;20029;-76
2021/11/01 01:50:02;;;;;;;5.03;2.42;;;10.00;99.90;;;;;;4860746;29;20074;-75
2021/11/01 01:52:30;;;;;;;8.30;2.75;;;10.00;99.90;;;;;;4861517;29;20103;-76
2021/11/01 01:54:56;;;;;;;6.20;2.45;;;10.00;99.90;;;;;;4862013;29;20066;-76
2021/11/01 01:57:22;;;;;;;8.65;2.65;;;9.90;99.90;;;;;;4861318;29;20486;-75
2021/11/01 01:59:48;;;;;;;6.82;2.47;;;9.90;99.90;;;;;;4860735;29;20086;-76
2021/11/01 02:02:14;;;;;;;5.82;2.78;;;9.90;99.90;;;;;;4861931;29;20029;-76
2021/11/01 02:04:39;;;;;;;5.35;2.30;;;9.90;99.90;;;;;;4861211;29;20414;-75
2021/11/01 02:07:46;;;;;;;6.57;2.20;;;10.00;99.90;;;;;;4860589;29;20075;-76
2021/11/01 02:10:15;;;;;;;7.72;2.28;;;9.90;99.90;;;;;;4807633;29;20052;-77
2021/11/01 02:12:49;;;;;;;9.40;2.60;;;9.90;99.90;;;;;;4851748;29;20109;-75
2021/11/01 02:15:29;;;;;;;11.40;3.15;;;9.90;99.90;;;;;;4860667;29;20056;-75
2021/11/01 02:17:57;;;;;;;5.90;1.90;;;9.80;99.90;;;;;;4861712;29;20026;-76
2021/11/01 02:20:52;;;;;;;10.90;2.72;;;9.80;99.90;;;;;;4859850;29;20497;-75
2021/11/01 02:23:41;;;;;;;8.02;2.33;;;9.80;99.90;;;;;;4861574;29;20124;-75
2021/11/01 02:26:09;;;;;;;5.60;2.15;;;9.80;99.90;;;;;;4859548;29;20092;-75
2021/11/01 02:28:38;;;;;;;8.00;2.03;;;9.70;99.90;;;;;;4861492;29;20032;-75
2021/11/01 02:31:06;;;;;;;5.28;1.88;;;9.80;99.90;;;;;;4861310;29;20029;-75
2021/11/01 02:33:32;;;;;;;5.22;2.53;;;9.80;99.90;;;;;;4859319;29;20612;-76
2021/11/01 02:35:58;;;;;;;8.63;2.50;;;9.70;99.90;;;;;;4859633;29;20062;-75
2021/11/01 02:38:28;;;;;;;10.25;2.58;;;9.70;99.90;;;;;;4860403;29;20040;-76
2021/11/01 02:40:54;;;;;;;6.10;2.47;;;9.70;99.90;;;;;;4859459;29;20033;-75
2021/11/01 02:43:20;;;;;;;10.27;2.20;;;9.70;99.90;;;;;;4859772;29;20427;-76
2021/11/01 02:45:46;;;;;;;4.22;2.05;;;9.70;99.90;;;;;;4860106;29;20025;-75
2021/11/01 02:48:12;;;;;;;6.82;1.80;;;9.70;99.90;;;;;;4860311;29;20040;-75
2021/11/01 02:50:39;;;;;;;6.55;2.25;;;9.70;99.90;;;;;;4859773;29;20387;-76
2021/11/01 02:53:06;;;;;;;2.38;1.52;;;9.60;99.90;;;;;;4860275;29;20041;-75
2021/11/01 02:55:33;;;;;;;7.28;1.73;;;9.60;99.90;;;;;;4859270;29;20072;-76
2021/11/01 02:57:59;;;;;;;3.95;1.58;;;9.60;99.90;;;;;;4859460;29;20080;-75
2021/11/01 03:00:26;;;;;;;5.50;1.90;;;9.60;99.90;;;;;;4861037;29;20495;-76
2021/11/01 03:02:53;;;;;;;5.22;2.63;;;9.60;99.90;;;;;;4860199;29;20026;-75
2021/11/01 03:05:21;;;;;;;3.45;1.70;;;9.60;99.90;;;;;;4859434;29;20025;-75
2021/11/01 03:07:49;;;;;;;6.07;1.80;;;9.60;99.90;;;;;;4858867;29;20040;-76
2021/11/01 03:10:16;;;;;;;7.05;1.58;;;9.60;99.90;;;;;;4859379;29;20030;-75
2021/11/01 03:12:44;;;;;;;6.95;2.28;;;9.60;99.90;;;;;;4859104;29;20144;-75
2021/11/01 03:15:17;;;;;;;5.82;1.80;;;9.60;99.90;;;;;;4858661;29;20022;-75
2021/11/01 03:17:47;;;;;;;5.10;2.25;;;9.60;99.90;;;;;;4860605;29;20112;-76
2021/11/01 03:20:15;;;;;;;4.05;1.30;;;9.60;99.90;;;;;;4859276;29;20022;-76
2021/11/01 03:22:45;;;;;;;5.22;1.67;;;9.60;99.90;;;;;;4858764;29;20038;-76
2021/11/01 03:25:21;;;;;;;7.47;1.90;;;9.60;99.90;;;;;;4860505;29;20025;-75
2021/11/01 03:27:51;;;;;;;4.95;2.03;;;9.60;99.90;;;;;;4862418;29;20132;-75
2021/11/01 03:30:18;;;;;;;5.55;2.22;;;9.50;99.90;;;;;;4859757;29;20021;-76
2021/11/01 03:32:45;;;;;;;3.45;1.75;;;9.60;99.90;;;;;;4860260;29;20405;-75
2021/11/01 03:35:11;;;;;;;4.82;1.63;;;9.60;99.90;;;;;;4860331;29;20033;-75
2021/11/01 03:37:38;;;;;;;7.50;1.92;;;9.60;99.90;;;;;;4858297;29;20053;-75
2021/11/01 03:40:05;;;;;;;5.03;2.17;;;9.60;99.90;;;;;;4860173;29;20029;-75
2021/11/01 03:42:31;;;;;;;6.82;2.00;;;9.50;99.90;;;;;;4859051;29;20120;-75
2021/11/01 03:45:03;;;;;;;7.40;1.90;;;9.50;99.90;;;;;;4859376;29;20073;-76
2021/11/01 03:47:34;;;;;;;5.40;1.88;;;9.50;99.90;;;;;;4860160;29;20475;-75
2021/11/01 03:50:05;;;;;;;7.63;2.35;;;9.50;99.90;;;;;;4859436;29;20022;-74
2021/11/01 03:52:35;;;;;;;4.85;1.95;;;9.50;99.90;;;;;;4860198;29;20041;-75
2021/11/01 03:55:03;;;;;;;7.22;2.25;;;9.50;99.90;;;;;;4859928;29;20030;-75
2021/11/01 03:57:29;;;;;;;8.68;2.15;;;9.50;99.90;;;;;;4858206;29;20133;-75
2021/11/01 03:59:55;;;;;;;5.35;2.78;;;9.50;99.90;;;;;;4860015;29;20120;-75
2021/11/01 04:02:21;;;;;;;4.57;1.70;;;9.50;99.90;;;;;;4858990;29;20112;-75
2021/11/01 04:04:51;;;;;;;5.88;1.77;;;9.50;99.90;;;;;;4859331;29;20538;-75
2021/11/01 04:07:17;;;;;;;5.18;1.98;;;9.50;99.90;;;;;;4859793;29;20033;-75
2021/11/01 04:09:43;;;;;;;6.20;2.20;;;9.50;99.90;;;;;;4859754;29;20120;-75
2021/11/01 04:12:10;;;;;;;9.07;1.95;;;9.50;99.90;;;;;;4859277;29;20041;-75
2021/11/01 04:14:43;;;;;;;5.60;1.65;;;9.50;99.90;;;;;;4859906;29;20029;-75
2021/11/01 04:17:12;;;;;;;5.80;2.10;;;9.50;99.90;;;;;;4859733;29;20026;-75
2021/11/01 04:19:53;;;;;;;6.18;1.88;;;9.50;99.90;;;;;;4859166;29;20017;-75
2021/11/01 04:22:19;;;;;;;4.38;1.80;;;9.50;99.90;;;;;;4859621;29;20041;-75
2021/11/01 04:24:44;;;;;;;6.07;2.30;;;9.50;99.90;;;;;;4858765;29;20643;-75
2021/11/01 04:27:10;;;;;;;7.55;1.90;;;9.50;99.90;;;;;;4858989;29;20025;-75
2021/11/01 04:29:36;;;;;;;3.67;1.60;;;9.40;99.90;;;;;;4859871;29;20061;-75
2021/11/01 04:32:15;;;;;;;5.07;1.90;;;9.40;99.90;;;;;;4859063;29;20100;-75
2021/11/01 04:34:46;;;;;;;3.05;1.90;;;9.50;99.90;;;;;;4858453;29;20026;-75
2021/11/01 04:37:12;;;;;;;4.50;2.10;;;9.60;99.90;;;;;;4858035;29;20053;-75
2021/11/01 04:39:56;;;;;;;4.95;2.05;;;9.60;99.90;;;;;;4859028;29;20089;-75
2021/11/01 04:42:44;;;;;;;4.95;1.85;;;9.60;99.90;;;;;;4859827;29;20482;-76
2021/11/01 04:53:05;;;;;;;5.68;1.75;;;9.60;99.90;;;;;;4859405;29;20056;-75
2021/11/01 04:55:32;;;;;;;5.07;1.63;;;9.50;99.90;;;;;;4859090;29;20021;-75
2021/11/01 04:57:58;;;;;;;5.72;2.22;;;9.50;99.90;;;;;;4859237;29;20029;-75
2021/11/01 05:00:24;;;;;;;6.43;1.80;;;9.50;99.90;;;;;;4859222;29;20025;-75
2021/11/01 05:03:05;;;;;;;6.43;2.00;;;9.40;99.90;;;;;;4859581;29;20085;-75
2021/11/01 05:05:30;;;;;;;4.57;2.05;;;9.40;99.90;;;;;;4859408;29;20447;-75
2021/11/01 05:07:59;;;;;;;6.70;2.13;;;9.40;99.90;;;;;;4858482;29;20116;-75
2021/11/01 05:10:32;;;;;;;12.23;3.00;;;9.40;99.90;;;;;;4858185;29;20032;-75
2021/11/01 05:12:58;;;;;;;9.15;2.05;;;9.40;99.90;;;;;;4856102;29;20053;-75
2021/11/01 05:15:35;;;;;;;4.35;1.95;;;9.40;99.90;;;;;;4853304;29;20038;-75
2021/11/01 05:18:17;;;;;;;6.15;2.28;;;9.40;99.90;;;;;;4854068;29;20029;-75
2021/11/01 05:20:58;;;;;;;7.35;1.92;;;9.40;99.90;;;;;;4861485;29;20036;-77
2021/11/01 05:23:44;;;;;;;4.78;2.10;;;9.40;99.90;;;;;;4862234;29;20081;-76
2021/11/01 05:26:15;;;;;;;7.65;2.28;;;9.30;99.90;;;;;;4855020;29;20482;-75
2021/11/01 05:31:16;;;;;;;7.75;2.25;;;9.30;99.90;;;;;;4852540;29;20034;-75
2021/11/01 05:33:51;;;;;;;4.65;1.98;;;9.30;99.90;;;;;;4844259;29;20487;-74
2021/11/01 05:36:17;;;;;;;6.22;2.10;;;9.30;99.90;;;;;;4841827;29;20054;-75
2021/11/01 05:38:42;;;;;;;6.07;2.20;;;9.30;99.90;;;;;;4842923;29;20033;-75
2021/11/01 05:41:08;;;;;;;11.15;2.75;;;9.30;99.90;;;;;;4842734;29;20034;-75
2021/11/01 05:43:34;;;;;;;4.70;1.98;;;9.30;99.90;;;;;;4855300;29;20033;-75
2021/11/01 05:46:00;;;;;;;7.60;2.15;;;9.30;99.90;;;;;;4860757;29;20169;-75
2021/11/01 05:48:26;;;;;;;5.15;1.92;;;9.30;99.90;;;;;;4860978;29;20037;-74
2021/11/01 05:50:52;;;;;;;5.65;1.90;;;9.30;99.90;;;;;;4861478;29;20030;-74
2021/11/01 05:53:18;;;;;;;5.30;2.30;;;9.30;99.90;;;;;;4860930;29;20037;-74
2021/11/01 06:03:34;;;;;;;6.72;1.88;;;9.30;99.90;;;;;;4861978;29;20105;-75
2021/11/01 06:06:15;;;;;;;5.88;2.28;;;9.20;99.90;;;;;;4860950;29;20036;-75
2021/11/01 06:08:46;;;;;;;9.05;2.65;;;9.20;99.90;;;;;;4861646;29;20053;-76
2021/11/01 06:13:57;;;;;;;6.25;2.17;;;9.20;99.90;;;;;;4862027;29;20057;-76
2021/11/01 06:16:24;;;;;;;8.23;2.00;;;9.20;99.90;;;;;;4860056;29;20021;-75
2021/11/01 06:18:50;;;;;;;8.38;2.05;;;9.20;99.90;;;;;;4860629;29;20032;-76
2021/11/01 06:21:18;;;;;;;7.13;2.35;;;9.20;99.90;;;;;;4860439;29;20467;-76
2021/11/01 06:23:51;;;;;;;5.15;1.60;;;9.20;99.90;;;;;;4860823;29;20035;-75
2021/11/01 06:26:18;;;;;;;5.60;1.75;;;9.30;99.90;;;;;;4859675;29;20098;-76
2021/11/01 06:28:49;;;;;;;7.85;1.80;;;9.30;99.90;;;;;;4855416;29;20029;-76
2021/11/01 06:31:30;;;;;;;5.78;2.30;;;9.30;99.90;;;;;;4853595;29;20396;-77
2021/11/01 06:50:01;;;;;;;6.55;2.33;;;9.80;99.90;;;;;;4859139;29;20052;-76
2021/11/01 06:55:11;;;;;;;11.50;2.50;;;9.80;99.90;;;;;;4860271;29;20030;-76
2021/11/01 07:16:48;;;;;;;6.72;2.45;;;9.90;99.90;;;;;;4860426;29;20061;-77
2021/11/01 07:22:34;;;;;;;7.53;2.10;;;9.80;99.90;;;;;;4842635;29;20048;-75
2021/11/01 07:25:28;;;;;;;9.00;3.30;;;9.80;99.90;;;;;;4857791;29;20052;-77
2021/11/01 08:22:57;;;;;;;5.38;1.90;;;10.50;99.90;;;;;;4859709;29;20406;-77
2021/11/01 08:25:50;;;;;;;10.02;2.35;;;10.50;99.90;;;;;;4859439;29;20026;-77
2021/11/01 08:36:43;;;;;;;8.07;2.10;;;10.50;99.90;;;;;;4859363;29;20594;-77
2021/11/01 08:49:44;;;;;;;7.15;2.47;;;10.50;99.90;;;;;;4859926;29;20041;-76
2021/11/01 09:03:16;;;;;;;5.57;2.00;;;11.00;99.90;;;;;;4863096;29;20060;-75
2021/11/01 09:05:59;;;;;;;7.30;2.17;;;11.00;99.90;;;;;;4862890;29;20048;-77
2021/11/01 09:19:49;;;;;;;9.88;2.22;;;11.20;99.90;;;;;;4862639;29;20093;-76
2021/11/01 09:24:51;;;;;;;7.93;1.95;;;11.40;99.90;;;;;;4862630;29;20026;-77
2021/11/01 09:27:20;;;;;;;7.32;2.45;;;11.40;99.90;;;;;;4861360;29;20041;-77
2021/11/01 09:30:37;;;;;;;7.13;1.83;;;11.40;99.90;;;;;;4860776;29;20089;-77
2021/11/01 09:38:17;;;;;;;8.25;3.42;;;11.50;99.90;;;;;;4862350;29;20076;-76
2021/11/01 09:43:29;;;;;;;8.35;2.17;;;11.50;99.90;;;;;;4861899;29;20052;-77
2021/11/01 09:45:56;;;;;;;5.30;1.98;;;11.50;99.90;;;;;;4861042;29;20026;-76
2021/11/01 09:48:24;;;;;;;8.02;2.65;;;11.50;99.90;;;;;;4862423;29;20029;-77
2021/11/01 09:50:51;;;;;;;7.20;2.10;;;11.60;99.90;;;;;;4860386;29;20033;-77
2021/11/01 09:53:24;;;;;;;9.52;3.20;;;11.50;99.90;;;;;;4860755;29;20033;-77
2021/11/01 10:01:16;;;;;;;8.80;3.17;;;11.40;99.90;;;;;;4862093;29;20032;-77
2021/11/01 10:03:49;;;;;;;5.95;2.08;;;11.30;99.90;;;;;;4861341;29;20080;-77
2021/11/01 10:06:19;;;;;;;5.85;1.95;;;11.30;99.90;;;;;;4861896;29;20033;-77
2021/11/01 10:08:59;;;;;;;5.70;2.30;;;11.20;99.90;;;;;;4860416;29;20090;-77
2021/11/01 10:11:36;;;;;;;6.78;2.80;;;11.20;99.90;;;;;;4858361;29;20077;-75
2021/11/01 10:14:05;;;;;;;5.00;1.88;;;11.20;99.90;;;;;;4861453;29;20076;-78
2021/11/01 10:19:37;;;;;;;6.28;1.83;;;11.20;99.90;;;;;;4853586;29;20140;-79
2021/11/01 10:22:08;;;;;;;8.70;2.15;;;11.20;99.90;;;;;;4860468;29;20026;-84
2021/11/01 10:24:40;;;;;;;8.23;2.38;;;11.20;99.90;;;;;;4847905;29;20081;-78
2021/11/01 10:27:31;;;;;;;5.47;1.80;;;11.20;99.90;;;;;;4841200;29;20022;-78
2021/11/01 10:30:01;;;;;;;8.80;2.15;;;11.20;99.90;;;;;;4840806;29;20220;-79
2021/11/01 10:32:44;;;;;;;7.45;1.88;;;11.20;99.90;;;;;;4841171;29;20037;-78
2021/11/01 10:35:20;;;;;;;7.38;1.92;;;11.20;99.90;;;;;;4859158;29;20025;-78
2021/11/01 10:38:31;;;;;;;4.47;1.85;;;11.10;99.90;;;;;;4855939;29;20571;-81
2021/11/01 10:41:33;;;;;;;5.55;1.95;;;11.20;99.90;;;;;;5045182;27;1899797;-79
2021/11/01 11:11:45;;;;;;;4.47;1.48;;;11.60;99.90;;;;;;5085749;28;20043;-78
2021/11/01 11:14:22;;;;;;;6.75;2.10;;;11.60;99.90;;;;;;5064350;28;20032;-78
2021/11/01 11:33:17;;;;;;;8.95;2.15;;;11.70;99.90;;;;;;5088114;28;20131;-76
2021/11/01 11:49:48;;;;;;;4.80;1.70;;;12.00;99.90;;;;;;5088302;28;20026;-76
2021/11/01 11:52:14;;;;;;;3.85;1.65;;;12.00;99.90;;;;;;5076443;28;20091;-77
2021/11/01 11:54:49;;;;;;;7.22;2.38;;;12.10;99.90;;;;;;5056126;28;20392;-76
2021/11/01 11:57:29;;;;;;;6.68;2.03;;;12.20;99.90;;;;;;5074679;28;20348;-76
2021/11/01 11:59:57;;;;;;;5.32;2.65;;;12.20;99.90;;;;;;5056703;28;20036;-78
2021/11/01 12:02:46;;;;;;;5.85;2.03;;;12.20;99.90;;;;;;5074045;28;20542;-81
2021/11/01 12:05:38;;;;;;;3.15;1.50;;;12.30;99.90;;;;;;5074652;28;20030;-78
2021/11/01 12:08:12;;;;;;;3.25;1.60;;;12.30;99.90;;;;;;5073714;28;20027;-80
2021/11/01 12:11:18;;;;;;;7.13;1.67;;;12.30;99.90;;;;;;5074495;28;20016;-80
2021/11/01 12:17:04;;;;;;;;;;;12.50;99.90;;;;;;5074062;28;20036;-76
2021/11/01 12:19:24;;;;;;;3.33;1.50;;;12.60;99.90;;;;;;5074325;28;19966;-77
2021/11/01 12:21:51;;;;;;;5.10;2.10;;;12.70;99.90;;;;;;5055590;28;20024;-77
2021/11/01 12:24:24;;;;;;;9.30;2.55;;;12.70;99.90;;;;;;5074146;28;20052;-76
2021/11/01 12:26:58;;;;;;;;;;;12.80;99.90;;;;;;5074722;28;20021;-76
2021/11/01 12:29:23;;;;;;;4.03;1.75;;;12.70;99.90;;;;;;5073521;28;19958;-77
2021/11/01 12:32:04;;;;;;;7.18;2.08;;;12.70;99.90;;;;;;5056188;28;20434;-77
2021/11/01 12:34:30;;;;;;;3.45;1.50;;;12.70;99.90;;;;;;5056326;28;20025;-77
2021/11/01 12:37:04;;;;;;;4.78;2.13;;;12.70;99.90;;;;;;5055279;28;20032;-77
2021/11/01 12:39:35;;;;;;;5.78;1.77;;;12.70;99.90;;;;;;5073861;28;20094;-76
2021/11/01 12:58:44;;;;;;;4.15;2.00;;;12.80;99.90;;;;;;5073204;28;20093;-78
2021/11/01 13:01:14;;;;;;;5.57;1.52;;;12.70;99.90;;;;;;5073535;28;20105;-77
2021/11/01 13:03:46;;;;;;;4.03;1.58;;;12.70;99.90;;;;;;5054066;28;20020;-77
2021/11/01 13:06:22;;;;;;;5.72;2.22;;;12.70;99.90;;;;;;5055353;28;20021;-78
2021/11/01 13:08:49;;;;;;;3.10;1.45;;;12.60;99.90;;;;;;5055529;28;20059;-78
2021/11/01 13:11:38;;;;;;;5.85;1.98;;;12.60;99.90;;;;;;5072392;28;20030;-78
2021/11/01 13:19:18;;;;;;;4.20;1.70;;;12.70;99.90;;;;;;5072528;28;20043;-78
2021/11/01 13:21:53;;;;;;;4.97;1.75;;;12.70;99.90;;;;;;5073081;28;20476;-77
2021/11/01 13:24:22;;;;;;;6.25;1.65;;;12.60;99.90;;;;;;5055062;28;20013;-78
2021/11/01 13:35:13;;;;;;;4.85;1.60;;;12.30;99.90;;;;;;5073300;28;20083;-78
2021/11/01 13:37:41;;;;;;;3.42;1.75;;;12.20;99.90;;;;;;5054906;28;20062;-77
2021/11/01 13:40:16;;;;;;;5.88;1.63;;;12.20;99.90;;;;;;5071818;28;20051;-78
2021/11/01 13:42:58;;;;;;;3.22;1.40;;;12.20;99.90;;;;;;5073172;28;20396;-77
2021/11/01 13:45:24;;;;;;;;;;;12.20;99.90;;;;;;5073283;28;20017;-77
2021/11/01 13:47:50;;;;;;;3.83;1.52;;;12.30;99.90;;;;;;5054185;28;19953;-77
2021/11/01 13:50:22;;;;;;;4.85;1.55;;;12.40;99.90;;;;;;5054856;28;20013;-76
2021/11/01 13:52:54;;;;;;;2.22;1.38;;;12.40;99.90;;;;;;5072640;28;20024;-77
2021/11/01 13:55:32;;;;;;;4.07;1.40;;;12.50;99.90;;;;;;5072282;28;20538;-77
2021/11/01 13:58:06;;;;;;;4.97;1.70;;;12.50;99.90;;;;;;5072187;28;20480;-77
2021/11/01 14:14:21;;;;;;;3.22;1.60;;;12.40;99.90;;;;;;5071181;28;20111;-77
2021/11/01 14:17:02;;;;;;;2.60;1.30;;;12.40;99.90;;;;;;5072157;28;20029;-77
2021/11/01 14:30:26;;;;;;;7.07;2.08;;;12.60;99.90;;;;;;5071255;28;20032;-76
2021/11/01 14:35:42;;;;;;;4.35;1.55;;;12.60;99.90;;;;;;5070795;28;20029;-77
2021/11/01 15:03:40;;;;;;;5.07;1.80;;;12.60;99.90;;;;;;5072000;28;20541;-77
2021/11/01 15:21:47;;;;;;;7.10;2.15;;;12.10;99.90;;;;;;5071766;28;20078;-76
2021/11/01 16:18:38;;;;;;;3.72;1.80;;;11.60;99.90;;;;;;5074602;28;20062;-77
2021/11/01 16:21:04;;;;;;;3.15;1.80;;;11.60;99.90;;;;;;5073643;28;20032;-76
2021/11/01 16:23:34;;;;;;;4.45;1.65;;;11.60;99.90;;;;;;5074305;28;20008;-76
2021/11/01 16:26:09;;;;;;;3.47;1.55;;;11.50;99.90;;;;;;5074099;28;20028;-76
2021/11/01 16:28:35;;;;;;;2.28;1.15;;;11.40;99.90;;;;;;5055530;28;20112;-76
2021/11/01 16:31:22;;;;;;;3.50;1.67;;;11.40;99.90;;;;;;5073954;28;20039;-76
2021/11/01 16:33:51;;;;;;;3.22;1.67;;;11.30;99.90;;;;;;5055972;28;20038;-76
2021/11/01 16:36:40;;;;;;;2.75;1.35;;;11.40;99.90;;;;;;5055260;28;20027;-76
2021/11/01 16:39:06;;;;;;;3.72;1.73;;;11.30;99.90;;;;;;5073783;28;20025;-76
2021/11/01 16:41:34;;;;;;;3.83;1.70;;;11.30;99.90;;;;;;5073655;28;20170;-76
2021/11/01 16:44:07;;;;;;;6.50;2.22;;;11.20;99.90;;;;;;5073033;28;20388;-76
2021/11/01 16:46:33;;;;;;;1.73;1.45;;;11.20;99.90;;;;;;5056188;28;20029;-76
2021/11/01 16:49:00;;;;;;;5.43;2.20;;;11.20;99.90;;;;;;5072877;28;20573;-76
2021/11/01 16:51:26;;;;;;;5.88;2.15;;;11.30;99.90;;;;;;5055906;28;20484;-76
2021/11/01 16:53:52;;;;;;;5.30;1.98;;;11.30;99.90;;;;;;5073266;28;20025;-77
2021/11/01 16:58:47;;;;;;;6.90;3.47;;;11.40;99.90;;;;;;5073608;28;20055;-77
2021/11/01 17:01:17;;;;;;;8.52;6.80;;;11.30;99.90;;;;;;5073290;28;20032;-78
2021/11/01 17:03:50;;;;;;;9.50;7.55;;;11.40;99.90;;;;;;5072873;28;20017;-76
2021/11/01 17:06:45;;;;;;;9.20;7.35;;;11.40;99.90;;;;;;5073305;28;20029;-78
2021/11/01 17:25:24;;;;;;;2.78;2.05;;;11.00;99.90;;;;;;5072340;28;20047;-76
2021/11/01 17:30:50;;;;;;;6.32;5.18;;;10.80;99.90;;;;;;5069485;28;20376;-79
2021/11/01 17:36:16;;;;;;;4.55;3.90;;;10.70;99.90;;;;;;5061832;28;20110;-77
2021/11/01 18:39:25;;;;;;;1.75;1.30;;;10.60;99.90;;;;;;5066032;28;20035;-76
2021/11/01 18:44:52;;;;;;;3.08;1.63;;;10.60;99.90;;;;;;5067751;28;20033;-76
2021/11/01 18:52:54;;;;;;;40.90;24.35;;;10.50;99.90;;;;;;5057397;28;20082;-76
2021/11/01 18:55:20;;;;;;;59.88;34.22;;;10.50;99.90;;;;;;5049630;28;20043;-76
2021/11/01 18:57:48;;;;;;;102.55;59.05;;;10.50;99.90;;;;;;5068230;28;20036;-75
2021/11/01 19:00:15;;;;;;;84.93;50.33;;;10.50;99.90;;;;;;5066257;28;20081;-76
2021/11/01 19:02:46;;;;;;;63.85;39.95;;;10.40;99.90;;;;;;5070199;28;20035;-76
2021/11/01 19:05:33;;;;;;;37.47;23.50;;;10.40;99.90;;;;;;5053670;28;20020;-76
2021/11/01 20:02:43;;;;;;;6.73;2.97;;;10.20;99.90;;;;;;5070788;28;20044;-76
2021/11/01 20:14:37;;;;;;;20.40;12.50;;;9.30;99.90;;;;;;5070019;28;20047;-77
2021/11/01 21:27:00;;;;;;;3.03;2.63;;;8.50;99.90;;;;;;5071864;28;20123;-77
2021/11/01 21:29:26;;;;;;;3.67;3.08;;;8.50;99.90;;;;;;5055400;28;20530;-75
2021/11/01 21:31:52;;;;;;;3.42;2.97;;;8.40;99.90;;;;;;5063590;28;20492;-75
2021/11/01 21:34:27;;;;;;;3.05;2.75;;;8.40;99.90;;;;;;5064357;28;20064;-74
2021/11/01 21:36:57;;;;;;;3.88;3.15;;;8.40;99.90;;;;;;5072875;28;20040;-74
2021/11/01 21:39:22;;;;;;;5.60;3.10;;;8.40;99.90;;;;;;5061214;28;20032;-76
2021/11/01 21:41:48;;;;;;;3.40;3.10;;;8.40;99.90;;;;;;5069990;28;20049;-75
2021/11/01 21:44:14;;;;;;;3.63;3.15;;;8.40;99.90;;;;;;5070853;28;20417;-76
2021/11/01 21:46:39;;;;;;;5.05;3.58;;;8.30;99.90;;;;;;5071617;28;20055;-75
2021/11/01 21:49:05;;;;;;;4.00;3.60;;;8.30;99.90;;;;;;5069898;28;20060;-76
2021/11/01 21:51:32;;;;;;;3.85;3.45;;;8.30;99.90;;;;;;5071052;28;20017;-75
2021/11/01 21:54:13;;;;;;;3.92;3.38;;;8.30;99.90;;;;;;5051000;28;20025;-74
2021/11/01 21:56:41;;;;;;;5.97;3.90;;;8.30;99.90;;;;;;5064450;28;20090;-75
2021/11/01 21:59:20;;;;;;;4.75;3.72;;;8.30;99.90;;;;;;5050889;28;20276;-74
2021/11/01 22:18:23;;;;;;;4.72;3.60;;;8.20;99.90;;;;;;5052273;28;20067;-76
2021/11/01 22:20:54;;;;;;;4.25;3.40;;;8.20;99.90;;;;;;5042138;28;20499;-76
2021/11/01 22:26:50;;;;;;;4.75;3.55;;;8.10;99.90;;;;;;5071828;28;20387;-75
2021/11/01 22:34:19;;;;;;;4.38;3.65;;;8.10;99.90;;;;;;5071496;28;20506;-75
2021/11/01 22:42:28;;;;;;;6.28;3.35;;;8.10;99.90;;;;;;5070954;28;20052;-74
2021/11/01 22:45:11;;;;;;;6.15;3.60;;;8.10;99.90;;;;;;5072007;28;20108;-74
2021/11/01 22:48:09;;;;;;;3.40;2.92;;;8.10;99.90;;;;;;5053370;28;20459;-73
2021/11/01 22:58:39;;;;;;;9.68;6.72;;;8.10;99.90;;;;;;5071867;28;20105;-74
2021/11/01 23:01:11;;;;;;;11.50;7.13;;;8.10;99.90;;;;;;5071757;28;20025;-75
2021/11/01 23:33:24;;;;;;;40.38;28.00;;;8.00;99.90;;;;;;5071959;28;20051;-74
2021/11/01 23:35:52;;;;;;;36.15;25.30;;;8.00;99.90;;;;;;5053608;28;20113;-76
2021/11/01 23:38:18;;;;;;;33.30;24.33;;;8.00;99.90;;;;;;5052865;28;20384;-74
2021/11/01 23:40:44;;;;;;;23.58;18.70;;;8.00;99.90;;;;;;5053302;28;20037;-75
2021/11/01 23:43:13;;;;;;;19.88;16.08;;;8.00;99.90;;;;;;5071823;28;20028;-74
2021/11/01 23:45:41;;;;;;;16.08;13.27;;;8.00;99.90;;;;;;5070693;28;20150;-74
2021/11/01 23:48:08;;;;;;;11.13;9.70;;;8.00;99.90;;;;;;5073430;28;20028;-74
2021/11/01 23:50:34;;;;;;;9.02;7.57;;;7.90;99.90;;;;;;5075226;28;20028;-74
2021/11/01 23:53:13;;;;;;;7.22;6.47;;;7.90;99.90;;;;;;5074095;28;20519;-74
2021/11/01 23:55:40;;;;;;;6.55;5.40;;;7.90;99.90;;;;;;5074886;28;20032;-74
2021/11/01 23:58:07;;;;;;;5.70;4.13;;;7.90;99.90;;;;;;5073856;28;20415;-74
